createdAt,value
2018-04-23T00:00:37.061Z,5.73
2018-04-23T00:03:03.361Z,6.50
2018-04-23T00:05:29.665Z,5.70
2018-04-23T00:07:55.936Z,6.50
2018-04-23T00:10:22.253Z,5.47
2018-04-23T00:12:49.577Z,5.93
2018-04-23T00:15:16.617Z,6.07
2018-04-23T00:17:43.660Z,5.90
2018-04-23T00:20:10.721Z,6.27
2018-04-23T00:22:37.765Z,6.67
2018-04-23T00:25:04.816Z,6.23
2018-04-23T00:27:31.831Z,5.53
2018-04-23T00:29:58.133Z,6.00
2018-04-23T00:32:24.424Z,5.27
2018-04-23T00:34:50.693Z,7.17
2018-04-23T00:37:18.027Z,5.30
2018-04-23T00:39:44.297Z,5.90
2018-04-23T00:42:10.613Z,5.30
2018-04-23T00:44:36.896Z,5.23
2018-04-23T00:47:03.193Z,5.33
2018-04-23T00:49:29.519Z,5.53
2018-04-23T00:51:55.810Z,5.73
2018-04-23T00:54:22.115Z,6.00
2018-04-23T00:56:48.420Z,6.33
2018-04-23T00:59:15.477Z,5.90
2018-04-23T01:01:42.491Z,6.70
2018-04-23T01:04:08.776Z,6.73
2018-04-23T01:06:35.093Z,328.47
2018-04-23T01:09:02.173Z,123.27
2018-04-23T01:11:28.469Z,218.90
2018-04-23T01:13:55.489Z,298.10
2018-04-23T01:16:21.769Z,356.20
2018-04-23T01:18:48.076Z,391.40
2018-04-23T01:21:14.393Z,86.87
2018-04-23T01:23:41.440Z,6.90
2018-04-23T01:26:08.457Z,6.63
2018-04-23T01:28:34.894Z,6.90
2018-04-23T01:31:01.221Z,9.57
2018-04-23T01:33:27.562Z,6.17
2018-04-23T01:35:53.933Z,7.27
2018-04-23T01:38:22.041Z,9.17
2018-04-23T01:40:48.373Z,6.20
2018-04-23T01:43:14.904Z,6.50
2018-04-23T01:45:41.252Z,6.43
2018-04-23T01:48:07.571Z,7.57
2018-04-23T01:50:33.892Z,5.40
2018-04-23T01:53:00.210Z,6.50
2018-04-23T01:55:26.525Z,6.93
2018-04-23T01:57:52.848Z,6.10
2018-04-23T02:00:19.922Z,6.07
2018-04-23T02:02:46.273Z,7.67
2018-04-23T02:05:12.600Z,5.77
2018-04-23T02:07:38.904Z,7.40
2018-04-23T02:10:05.257Z,6.90
2018-04-23T02:12:31.585Z,7.10
2018-04-23T02:14:58.909Z,6.27
2018-04-23T02:17:26.220Z,6.87
2018-04-23T02:19:52.541Z,6.37
2018-04-23T02:22:18.889Z,6.40
2018-04-23T02:24:45.257Z,5.87
2018-04-23T02:27:12.324Z,5.93
2018-04-23T02:29:38.675Z,6.43
2018-04-23T02:32:05.625Z,6.90
2018-04-23T02:34:32.469Z,6.63
2018-04-23T02:36:58.809Z,6.47
2018-04-23T02:39:25.145Z,6.00
2018-04-23T02:41:51.477Z,5.83
2018-04-23T02:44:17.788Z,6.27
2018-04-23T02:46:45.149Z,6.67
2018-04-23T02:49:11.512Z,7.03
2018-04-23T02:51:38.612Z,6.63
2018-04-23T02:54:04.945Z,7.13
2018-04-23T02:56:31.289Z,7.10
2018-04-23T02:58:57.653Z,6.33
2018-04-23T03:01:24.734Z,6.73
2018-04-23T03:03:51.088Z,7.73
2018-04-23T03:06:17.425Z,11.17
2018-04-23T03:08:43.767Z,8.63
2018-04-23T03:11:10.138Z,7.90
2018-04-23T03:13:37.208Z,8.80
2018-04-23T03:16:04.622Z,6.60
2018-04-23T03:18:30.969Z,7.50
2018-04-23T03:20:58.053Z,6.90
2018-04-23T03:23:24.396Z,9.13
2018-04-23T03:25:50.761Z,7.67
2018-04-23T03:28:17.082Z,6.60
2018-04-23T03:30:44.176Z,6.20
2018-04-23T03:33:10.527Z,7.33
2018-04-23T03:35:36.836Z,7.10
2018-04-23T03:38:03.160Z,7.00
2018-04-23T03:40:29.475Z,6.50
2018-04-23T03:42:56.537Z,6.50
2018-04-23T03:45:22.885Z,6.67
2018-04-23T03:47:49.208Z,6.40
2018-04-23T03:50:15.537Z,7.40
2018-04-23T03:52:41.864Z,7.63
2018-04-23T03:55:08.214Z,7.17
2018-04-23T03:57:34.536Z,6.27
2018-04-23T04:00:00.870Z,6.70
2018-04-23T04:02:27.221Z,5.93
2018-04-23T04:04:53.548Z,7.80
2018-04-23T04:07:19.907Z,6.43
2018-04-23T04:09:46.227Z,10.17
2018-04-23T04:12:24.780Z,6.80
2018-04-23T04:15:04.204Z,7.07
2018-04-23T04:17:38.597Z,7.10
2018-04-23T04:20:06.477Z,9.50
2018-04-23T04:22:33.321Z,6.97
2018-04-23T04:24:59.661Z,7.17
2018-04-23T04:27:26.956Z,6.77
2018-04-23T04:29:54.310Z,7.00
2018-04-23T04:32:20.628Z,9.00
2018-04-23T04:34:47.685Z,6.73
2018-04-23T04:37:14.034Z,11.23
2018-04-23T04:39:40.373Z,7.20
2018-04-23T04:42:06.689Z,6.50
2018-04-23T04:44:33.058Z,8.27
2018-04-23T04:46:59.385Z,7.30
2018-04-23T04:49:25.698Z,8.20
2018-04-23T04:51:52.044Z,7.40
2018-04-23T04:54:18.365Z,7.60
2018-04-23T04:56:44.833Z,7.23
2018-04-23T04:59:11.162Z,6.70
2018-04-23T05:01:37.489Z,7.23
2018-04-23T05:04:03.840Z,6.60
2018-04-23T05:06:30.917Z,7.93
2018-04-23T05:08:57.233Z,6.57
2018-04-23T05:11:24.284Z,7.07
2018-04-23T05:13:51.347Z,5.50
2018-04-23T05:16:17.998Z,7.43
2018-04-23T05:18:44.321Z,8.87
2018-04-23T05:21:10.632Z,7.73
2018-04-23T05:23:37.032Z,6.00
2018-04-23T05:26:03.357Z,6.63
2018-04-23T05:28:29.681Z,6.87
2018-04-23T05:30:55.994Z,6.53
2018-04-23T05:33:22.324Z,9.20
2018-04-23T05:35:48.645Z,6.53
2018-04-23T05:38:15.013Z,9.37
2018-04-23T05:40:42.137Z,8.97
2018-04-23T05:43:08.535Z,8.13
2018-04-23T05:45:34.880Z,9.73
2018-04-23T05:48:01.221Z,6.10
2018-04-23T05:50:28.536Z,7.33
2018-04-23T05:52:55.593Z,8.40
2018-04-23T05:55:22.653Z,13.00
2018-04-23T05:57:49.856Z,6.10
2018-04-23T06:00:16.168Z,7.07
2018-04-23T06:02:42.464Z,6.43
2018-04-23T06:05:08.897Z,7.00
2018-04-23T06:07:35.225Z,6.13
2018-04-23T06:10:01.542Z,6.40
2018-04-23T06:12:27.914Z,7.20
2018-04-23T06:14:54.240Z,6.57
2018-04-23T06:17:20.592Z,6.67
2018-04-23T06:19:46.992Z,7.63
2018-04-23T06:22:13.273Z,5.77
2018-04-23T06:24:39.604Z,7.57
2018-04-23T06:27:05.910Z,7.90
2018-04-23T06:29:32.222Z,6.23
2018-04-23T06:31:58.553Z,5.83
2018-04-23T06:34:24.893Z,7.27
2018-04-23T06:36:51.217Z,7.33
2018-04-23T06:39:17.528Z,6.87
2018-04-23T06:41:44.574Z,7.33
2018-04-23T06:44:10.889Z,5.17
2018-04-23T06:46:37.940Z,6.60
2018-04-23T06:49:05.001Z,6.70
2018-04-23T06:51:31.320Z,6.97
2018-04-23T06:53:57.635Z,5.50
2018-04-23T06:56:24.809Z,6.47
2018-04-23T06:58:51.117Z,5.87
2018-04-23T07:01:19.194Z,5.90
2018-04-23T07:03:46.295Z,5.77
2018-04-23T07:06:12.641Z,5.83
2018-04-23T07:08:38.972Z,6.03
2018-04-23T07:11:05.285Z,6.60
2018-04-23T07:13:31.615Z,6.17
2018-04-23T07:15:57.931Z,5.57
2018-04-23T07:18:24.266Z,8.97
2018-04-23T07:20:50.578Z,5.10
2018-04-23T07:23:16.940Z,5.80
2018-04-23T07:25:43.276Z,5.17
2018-04-23T07:28:09.590Z,6.13
2018-04-23T07:30:35.901Z,5.77
2018-04-23T07:33:02.231Z,5.63
2018-04-23T07:35:28.556Z,5.13
2018-04-23T07:37:54.999Z,6.93
2018-04-23T07:40:21.309Z,5.63
2018-04-23T07:42:48.365Z,6.33
2018-04-23T07:45:14.739Z,5.93
2018-04-23T07:47:41.061Z,5.90
2018-04-23T07:50:07.381Z,5.97
2018-04-23T07:52:33.697Z,5.03
2018-04-23T07:55:00.013Z,4.87
2018-04-23T07:57:27.081Z,6.33
2018-04-23T07:59:53.447Z,5.50
2018-04-23T08:02:19.758Z,5.40
2018-04-23T08:04:46.092Z,5.73
2018-04-23T08:07:12.424Z,5.93
2018-04-23T08:09:38.788Z,6.17
2018-04-23T08:12:06.105Z,6.00
2018-04-23T08:14:32.418Z,4.37
2018-04-23T08:16:58.724Z,3.37
2018-04-23T08:19:25.807Z,5.67
2018-04-23T08:21:52.109Z,6.07
2018-04-23T08:24:19.157Z,4.10
2018-04-23T08:26:47.255Z,7.03
2018-04-23T08:29:13.557Z,4.70
2018-04-23T08:31:40.612Z,3.57
2018-04-23T08:34:06.968Z,8.63
2018-04-23T08:36:33.281Z,5.53
2018-04-23T08:38:59.612Z,4.50
2018-04-23T08:41:26.593Z,4.13
2018-04-23T08:43:52.896Z,4.10
2018-04-23T08:46:19.277Z,3.53
2018-04-23T08:48:45.592Z,3.93
2018-04-23T08:51:11.914Z,3.80
2018-04-23T08:53:38.231Z,4.20
2018-04-23T08:56:04.537Z,4.27
2018-04-23T08:58:31.601Z,4.23
2018-04-23T09:00:57.921Z,6.43
2018-04-23T09:03:24.965Z,4.57
2018-04-23T09:05:52.025Z,4.40
2018-04-23T09:08:18.324Z,6.13
2018-04-23T09:10:45.384Z,4.00
2018-04-23T09:13:12.448Z,4.47
2018-04-23T09:15:38.764Z,4.80
2018-04-23T09:18:06.104Z,4.37
2018-04-23T09:20:33.177Z,3.67
2018-04-23T09:22:59.484Z,6.40
2018-04-23T09:25:26.536Z,4.60
2018-04-23T09:27:53.585Z,7.40
2018-04-23T09:30:20.641Z,5.93
2018-04-23T09:32:47.685Z,8.30
2018-04-23T09:35:14.745Z,6.47
2018-04-23T09:37:41.073Z,6.30
2018-04-23T09:40:07.389Z,4.33
2018-04-23T09:42:34.453Z,5.07
2018-04-23T09:45:00.798Z,4.10
2018-04-23T09:47:27.146Z,4.03
2018-04-23T09:49:53.468Z,4.10
2018-04-23T09:52:19.781Z,4.57
2018-04-23T09:54:46.097Z,3.40
2018-04-23T09:57:13.169Z,4.50
2018-04-23T09:59:39.489Z,2.80
2018-04-23T10:02:05.804Z,4.73
2018-04-23T10:04:32.870Z,3.57
2018-04-23T10:06:59.197Z,5.67
2018-04-23T10:09:25.551Z,8.90
2018-04-23T10:11:53.104Z,5.30
2018-04-23T10:14:19.411Z,3.33
2018-04-23T10:16:46.458Z,8.30
2018-04-23T10:19:13.548Z,5.77
2018-04-23T10:21:39.904Z,4.00
2018-04-23T10:24:06.244Z,3.57
2018-04-23T10:26:32.586Z,4.53
2018-04-23T10:28:59.632Z,8.73
2018-04-23T10:31:26.741Z,4.50
2018-04-23T10:33:53.029Z,4.00
2018-04-23T10:36:20.088Z,10.57
2018-04-23T10:38:46.416Z,6.23
2018-04-23T10:41:12.741Z,6.67
2018-04-23T10:43:39.060Z,4.50
2018-04-23T10:46:06.121Z,5.13
2018-04-23T10:48:32.428Z,6.63
2018-04-23T10:51:00.535Z,9.87
2018-04-23T10:53:26.889Z,5.93
2018-04-23T10:55:53.207Z,5.53
2018-04-23T10:58:20.569Z,5.97
2018-04-23T11:00:46.897Z,6.20
2018-04-23T11:03:13.229Z,9.00
2018-04-23T11:05:40.565Z,5.03
2018-04-23T11:08:07.873Z,4.10
2018-04-23T11:10:34.198Z,6.60
2018-04-23T11:13:00.515Z,5.10
2018-04-23T11:15:26.848Z,6.60
2018-04-23T11:17:54.661Z,6.80
2018-04-23T11:20:20.985Z,4.40
2018-04-23T11:22:48.032Z,8.00
2018-04-23T11:25:15.097Z,12.93
2018-04-23T11:27:41.409Z,8.23
2018-04-23T11:30:08.477Z,4.60
2018-04-23T11:32:34.797Z,7.33
2018-04-23T11:35:01.129Z,4.10
2018-04-23T11:37:27.453Z,6.30
2018-04-23T11:39:54.500Z,6.47
2018-04-23T11:42:21.561Z,5.80
2018-04-23T11:44:47.882Z,5.17
2018-04-23T11:47:14.245Z,5.10
2018-04-23T11:49:40.555Z,9.07
2018-04-23T11:52:06.887Z,6.13
2018-04-23T11:54:33.203Z,7.27
2018-04-23T11:57:00.245Z,10.93
2018-04-23T11:59:27.324Z,13.00
2018-04-23T12:01:53.662Z,5.73
2018-04-23T12:04:19.994Z,6.67
2018-04-23T12:06:46.331Z,7.03
2018-04-23T12:09:12.674Z,8.13
2018-04-23T12:11:39.008Z,8.57
2018-04-23T12:14:05.344Z,7.43
2018-04-23T12:16:32.669Z,4.50
2018-04-23T12:18:59.994Z,5.67
2018-04-23T12:21:26.326Z,8.63
2018-04-23T12:23:52.664Z,6.70
2018-04-23T12:26:18.977Z,8.43
2018-04-23T12:28:46.029Z,7.77
2018-04-23T12:31:12.362Z,4.47
2018-04-23T12:33:38.686Z,7.73
2018-04-23T12:36:05.740Z,8.67
2018-04-23T12:38:32.057Z,8.67
2018-04-23T12:40:59.121Z,7.73
2018-04-23T12:43:25.456Z,9.57
2018-04-23T12:45:51.827Z,9.60
2018-04-23T12:48:18.100Z,6.33
2018-04-23T12:50:45.156Z,4.20
2018-04-23T12:53:11.472Z,5.87
2018-04-23T12:55:38.536Z,9.80
2018-04-23T12:58:04.873Z,6.80
2018-04-23T13:00:31.206Z,8.43
2018-04-23T13:02:57.548Z,7.40
2018-04-23T13:05:23.857Z,7.37
2018-04-23T13:07:50.171Z,10.40
2018-04-23T13:10:17.245Z,5.23
2018-04-23T13:12:43.626Z,6.90
2018-04-23T13:15:09.931Z,7.87
2018-04-23T13:17:36.255Z,7.20
2018-04-23T13:20:02.597Z,6.90
2018-04-23T13:22:28.917Z,6.50
2018-04-23T13:24:55.250Z,13.50
2018-04-23T13:27:21.565Z,6.70
2018-04-23T13:29:47.877Z,7.73
2018-04-23T13:32:14.951Z,5.50
2018-04-23T13:34:41.278Z,6.20
2018-04-23T13:37:07.594Z,8.27
2018-04-23T13:39:33.892Z,9.77
2018-04-23T13:42:00.234Z,8.20
2018-04-23T13:44:27.289Z,6.67
2018-04-23T13:46:54.336Z,7.67
2018-04-23T13:49:21.416Z,7.07
2018-04-23T13:51:47.716Z,9.43
2018-04-23T13:54:14.789Z,7.13
2018-04-23T13:56:41.145Z,10.23
2018-04-23T13:59:07.470Z,7.83
2018-04-23T14:01:33.812Z,8.27
2018-04-23T14:04:00.177Z,15.50
2018-04-23T14:06:27.229Z,10.77
2018-04-23T14:08:54.275Z,14.13
2018-04-23T14:11:21.416Z,15.20
2018-04-23T14:13:48.501Z,9.67
2018-04-23T14:16:14.829Z,12.33
2018-04-23T14:18:41.143Z,14.83
2018-04-23T14:21:08.212Z,18.70
2018-04-23T14:23:34.545Z,11.17
2018-04-23T14:26:00.892Z,13.40
2018-04-23T14:28:27.216Z,12.50
2018-04-23T14:30:53.540Z,11.87
2018-04-23T14:33:19.847Z,14.73
2018-04-23T14:35:46.932Z,13.30
2018-04-23T14:38:13.265Z,10.47
2018-04-23T14:40:39.601Z,10.53
2018-04-23T14:43:05.918Z,13.50
2018-04-23T14:45:32.248Z,10.30
2018-04-23T14:47:59.600Z,8.63
2018-04-23T14:50:25.953Z,7.70
2018-04-23T14:52:52.273Z,9.93
2018-04-23T14:55:18.605Z,10.20
2018-04-23T14:57:44.961Z,10.50
2018-04-23T15:00:11.276Z,8.07
2018-04-23T15:02:37.601Z,10.00
2018-04-23T15:05:04.044Z,5.57
2018-04-23T15:07:30.356Z,9.53
2018-04-23T15:09:56.672Z,7.33
2018-04-23T15:12:22.984Z,7.17
2018-04-23T15:14:49.311Z,7.50
2018-04-23T15:17:15.613Z,8.60
2018-04-23T15:19:42.665Z,6.33
2018-04-23T15:22:09.765Z,8.13
2018-04-23T15:24:37.101Z,7.23
2018-04-23T15:27:03.433Z,7.23
2018-04-23T15:29:29.750Z,5.17
2018-04-23T15:31:56.094Z,10.60
2018-04-23T15:34:23.253Z,7.00
2018-04-23T15:36:49.829Z,14.40
2018-04-23T15:39:16.158Z,8.10
2018-04-23T15:41:42.753Z,5.93
2018-04-23T15:44:09.126Z,8.70
2018-04-23T15:46:35.442Z,6.70
2018-04-23T15:49:01.773Z,4.97
2018-04-23T15:51:28.110Z,7.00
2018-04-23T15:53:54.432Z,8.23
2018-04-23T15:56:20.752Z,6.17
2018-04-23T15:58:47.081Z,6.30
2018-04-23T16:01:13.433Z,7.27
2018-04-23T16:03:39.741Z,7.07
2018-04-23T16:06:06.090Z,7.90
2018-04-23T16:08:32.442Z,5.90
2018-04-23T16:10:58.758Z,6.03
2018-04-23T16:13:25.085Z,11.63
2018-04-23T16:15:51.444Z,8.03
2018-04-23T16:18:18.507Z,8.40
2018-04-23T16:20:45.579Z,6.57
2018-04-23T16:23:11.884Z,7.00
2018-04-23T16:25:38.937Z,6.40
2018-04-23T16:28:05.301Z,9.67
2018-04-23T16:30:32.224Z,5.50
2018-04-23T16:32:58.544Z,6.93
2018-04-23T16:35:24.877Z,8.57
2018-04-23T16:37:51.193Z,5.00
2018-04-23T16:40:18.274Z,7.30
2018-04-23T16:42:44.589Z,9.50
2018-04-23T16:45:10.903Z,7.63
2018-04-23T16:47:37.966Z,6.70
2018-04-23T16:50:04.304Z,6.60
2018-04-23T16:52:31.378Z,3.10
2018-04-23T16:54:59.438Z,8.03
2018-04-23T16:57:25.753Z,9.60
2018-04-23T16:59:52.829Z,10.43
2018-04-23T17:02:20.148Z,7.20
2018-04-23T17:04:46.456Z,5.83
2018-04-23T17:07:13.533Z,8.17
2018-04-23T17:09:39.849Z,10.73
2018-04-23T17:12:06.249Z,11.13
2018-04-23T17:14:33.333Z,5.10
2018-04-23T17:16:59.661Z,5.47
2018-04-23T17:19:26.016Z,4.80
2018-04-23T17:21:52.356Z,6.87
2018-04-23T17:24:18.691Z,6.13
2018-04-23T17:26:45.067Z,7.17
2018-04-23T17:29:12.157Z,6.13
2018-04-23T17:31:38.524Z,6.43
2018-04-23T17:34:04.860Z,4.97
2018-04-23T17:36:31.957Z,6.17
2018-04-23T17:38:58.277Z,7.70
2018-04-23T17:41:24.584Z,6.53
2018-04-23T17:43:51.648Z,9.13
2018-04-23T17:46:17.980Z,6.47
2018-04-23T17:48:45.035Z,11.57
2018-04-23T17:51:11.369Z,6.87
2018-04-23T17:53:37.704Z,5.63
2018-04-23T17:56:04.087Z,5.27
2018-04-23T17:58:30.430Z,8.70
2018-04-23T18:00:56.766Z,9.27
2018-04-23T18:03:23.082Z,8.90
2018-04-23T18:05:50.196Z,9.73
2018-04-23T18:08:16.497Z,7.83
2018-04-23T18:10:43.605Z,10.37
2018-04-23T18:13:10.995Z,7.13
2018-04-23T18:15:38.081Z,6.70
2018-04-23T18:18:04.415Z,7.40
2018-04-23T18:20:30.853Z,6.07
2018-04-23T18:22:57.352Z,6.67
2018-04-23T18:25:25.476Z,6.83
2018-04-23T18:27:51.847Z,5.53
2018-04-23T18:30:18.943Z,9.37
2018-04-23T18:32:45.356Z,11.60
2018-04-23T18:35:11.686Z,3.93
2018-04-23T18:37:38.089Z,12.33
2018-04-23T18:40:05.197Z,10.47
2018-04-23T18:42:31.621Z,9.60
2018-04-23T18:44:57.952Z,6.77
2018-04-23T18:47:24.278Z,6.27
2018-04-23T18:49:50.739Z,6.97
2018-04-23T18:52:17.595Z,8.80
2018-04-23T18:54:44.688Z,7.10
2018-04-23T18:57:11.113Z,6.07
2018-04-23T18:59:37.528Z,8.13
2018-04-23T19:02:04.618Z,14.43
2018-04-23T19:04:31.026Z,8.60
2018-04-23T19:06:57.387Z,7.60
2018-04-23T19:09:23.786Z,6.70
2018-04-23T19:11:50.169Z,9.90
2018-04-23T19:14:16.589Z,12.47
2018-04-23T19:16:42.911Z,12.57
2018-04-23T19:19:09.256Z,7.80
2018-04-23T19:21:35.613Z,9.30
2018-04-23T19:24:01.950Z,5.93
2018-04-23T19:26:29.025Z,10.90
2018-04-23T19:28:55.379Z,8.50
2018-04-23T19:31:21.697Z,11.10
2018-04-23T19:33:48.145Z,11.20
2018-04-23T19:36:14.623Z,13.00
2018-04-23T19:38:40.971Z,10.00
2018-04-23T19:41:08.085Z,8.60
2018-04-23T19:43:34.485Z,9.10
2018-04-23T19:46:00.833Z,9.20
2018-04-23T19:48:27.290Z,8.10
2018-04-23T19:50:53.774Z,14.43
2018-04-23T19:53:20.119Z,12.90
2018-04-23T19:55:46.461Z,10.27
2018-04-23T19:58:12.821Z,21.20
2018-04-23T20:00:39.235Z,9.97
2018-04-23T20:03:06.726Z,8.67
2018-04-23T20:05:33.833Z,10.13
2018-04-23T20:08:00.458Z,11.60
2018-04-23T20:10:26.792Z,9.77
2018-04-23T20:12:53.252Z,7.70
2018-04-23T20:15:19.688Z,9.40
2018-04-23T20:17:46.863Z,7.90
2018-04-23T20:20:13.949Z,13.30
2018-04-23T20:22:40.295Z,10.13
2018-04-23T20:25:06.630Z,19.13
2018-04-23T20:27:32.992Z,7.47
2018-04-23T20:30:00.050Z,9.07
2018-04-23T20:32:28.190Z,11.60
2018-04-23T20:34:54.599Z,15.07
2018-04-23T20:37:21.070Z,5.50
2018-04-23T20:39:47.477Z,7.07
2018-04-23T20:42:13.808Z,5.80
2018-04-23T20:44:40.129Z,8.63
2018-04-23T20:47:06.568Z,7.83
2018-04-23T20:49:33.053Z,10.27
2018-04-23T20:52:00.138Z,22.43
2018-04-23T20:54:26.497Z,10.30
2018-04-23T20:56:52.964Z,7.53
2018-04-23T20:59:20.095Z,9.70
2018-04-23T21:01:46.446Z,10.70
2018-04-23T21:04:13.616Z,11.97
2018-04-23T21:06:39.941Z,11.13
2018-04-23T21:09:07.030Z,11.27
2018-04-23T21:11:33.356Z,8.47
2018-04-23T21:13:59.692Z,10.93
2018-04-23T21:16:26.022Z,12.03
2018-04-23T21:18:52.345Z,16.13
2018-04-23T21:21:18.660Z,18.03
2018-04-23T21:23:44.978Z,15.30
2018-04-23T21:26:11.332Z,12.00
2018-04-23T21:28:37.668Z,13.10
2018-04-23T21:31:04.029Z,11.37
2018-04-23T21:33:30.360Z,11.73
2018-04-23T21:35:56.688Z,10.70
2018-04-23T21:38:24.037Z,12.43
2018-04-23T21:40:50.367Z,16.23
2018-04-23T21:43:16.705Z,13.50
2018-04-23T21:45:43.036Z,13.30
2018-04-23T21:48:09.376Z,13.00
2018-04-23T21:50:35.703Z,13.50
2018-04-23T21:53:02.033Z,10.60
2018-04-23T21:55:28.347Z,11.37
2018-04-23T21:57:54.670Z,12.27
2018-04-23T22:00:22.017Z,11.43
2018-04-23T22:02:48.352Z,14.20
2018-04-23T22:05:14.723Z,12.00
2018-04-23T22:07:41.797Z,10.97
2018-04-23T22:10:08.150Z,16.60
2018-04-23T22:12:34.500Z,9.93
2018-04-23T22:15:00.837Z,13.67
2018-04-23T22:17:27.141Z,10.97
2018-04-23T22:19:53.451Z,14.23
2018-04-23T22:22:19.776Z,14.00
2018-04-23T22:24:46.846Z,10.97
2018-04-23T22:27:13.152Z,9.93
2018-04-23T22:29:40.213Z,15.43
2018-04-23T22:32:06.597Z,11.30
2018-04-23T22:34:32.902Z,9.10
2018-04-23T22:36:59.248Z,10.60
2018-04-23T22:39:25.573Z,17.30
2018-04-23T22:41:51.889Z,11.10
2018-04-23T22:44:18.219Z,10.33
2018-04-23T22:46:44.584Z,9.17
2018-04-23T22:49:10.905Z,13.63
2018-04-23T22:51:37.228Z,8.20
2018-04-23T22:54:03.569Z,11.13
2018-04-23T22:56:31.577Z,10.83
2018-04-23T22:58:57.973Z,9.40
2018-04-23T23:01:24.281Z,9.53
2018-04-23T23:03:50.626Z,10.53
2018-04-23T23:06:16.956Z,9.13
2018-04-23T23:08:43.301Z,16.47
2018-04-23T23:11:09.621Z,11.53
2018-04-23T23:13:36.938Z,12.07
2018-04-23T23:16:03.281Z,9.47
2018-04-23T23:18:29.629Z,11.10
2018-04-23T23:20:55.972Z,12.80
2018-04-23T23:23:22.292Z,12.40
2018-04-23T23:25:50.113Z,14.30
2018-04-23T23:28:16.438Z,9.00
2018-04-23T23:30:42.779Z,12.00
2018-04-23T23:33:09.109Z,10.40
2018-04-23T23:35:35.450Z,9.90
2018-04-23T23:38:01.782Z,11.17
2018-04-23T23:40:28.093Z,10.17
2018-04-23T23:42:54.406Z,9.20
2018-04-23T23:45:22.496Z,11.00
2018-04-23T23:47:48.818Z,7.00
2018-04-23T23:50:15.973Z,9.87
2018-04-23T23:52:42.283Z,12.90
2018-04-23T23:55:09.433Z,11.33
2018-04-23T23:57:36.557Z,9.80
